createdAt,value
2022-11-18T00:01:31.250Z,14.57
2022-11-18T00:03:59.237Z,14.46
2022-11-18T00:06:29.885Z,14.25
2022-11-18T00:08:59.301Z,14.46
2022-11-18T00:11:47.206Z,14.70
2022-11-18T00:14:21.301Z,14.37
2022-11-18T00:17:02.445Z,14.56
2022-11-18T00:19:32.944Z,14.83
2022-11-18T00:22:01.728Z,14.75
2022-11-18T00:24:29.663Z,14.94
2022-11-18T00:26:58.036Z,14.67
2022-11-18T00:29:28.751Z,14.91
2022-11-18T00:31:59.250Z,14.78
2022-11-18T00:34:27.301Z,14.83
2022-11-18T00:36:56.737Z,14.93
2022-11-18T00:39:25.247Z,14.69
2022-11-18T00:42:12.170Z,14.75
2022-11-18T00:44:40.217Z,15.04
2022-11-18T00:47:08.483Z,14.87
2022-11-18T00:49:36.442Z,15.01
2022-11-18T00:52:05.983Z,14.97
2022-11-18T00:54:33.892Z,14.96
2022-11-18T00:57:02.227Z,14.95
2022-11-18T00:59:30.093Z,14.98
2022-11-18T01:01:58.882Z,14.85
2022-11-18T01:04:26.805Z,14.89
2022-11-18T01:06:57.453Z,14.91
2022-11-18T01:09:25.443Z,14.78
2022-11-18T01:12:12.596Z,14.86
2022-11-18T01:14:40.572Z,14.76
2022-11-18T01:17:10.004Z,14.81
2022-11-18T01:19:37.945Z,14.77
2022-11-18T01:22:07.310Z,14.86
2022-11-18T01:24:35.473Z,14.81
2022-11-18T01:27:04.015Z,14.82
2022-11-18T01:29:32.017Z,14.84
2022-11-18T01:34:48.452Z,14.86
2022-11-18T01:37:16.923Z,14.55
2022-11-18T01:39:44.853Z,14.79
2022-11-18T01:42:16.750Z,14.76
2022-11-18T01:45:11.122Z,14.61
2022-11-18T01:47:50.482Z,14.77
2022-11-18T01:50:20.878Z,14.81
2022-11-18T01:52:51.967Z,14.79
2022-11-18T01:55:26.522Z,14.76
2022-11-18T01:58:03.960Z,14.92
2022-11-18T02:00:31.892Z,14.92
2022-11-18T02:03:02.283Z,14.67
2022-11-18T02:05:32.020Z,14.69
2022-11-18T02:08:01.982Z,14.76
2022-11-18T02:10:29.929Z,14.81
2022-11-18T02:13:00.549Z,14.86
2022-11-18T02:16:03.631Z,14.84
2022-11-18T02:18:55.167Z,14.85
2022-11-18T02:21:57.786Z,14.79
2022-11-18T02:24:53.159Z,14.84
2022-11-18T02:27:47.579Z,14.69
2022-11-18T02:30:18.879Z,14.83
2022-11-18T02:33:11.019Z,14.80
2022-11-18T02:35:56.868Z,14.89
2022-11-18T02:38:34.267Z,14.69
2022-11-18T02:41:10.796Z,14.75
2022-11-18T02:43:48.147Z,14.80
2022-11-18T02:46:39.908Z,14.78
2022-11-18T02:49:13.519Z,14.57
2022-11-18T02:51:44.040Z,14.75
2022-11-18T02:54:14.028Z,14.69
2022-11-18T02:56:43.059Z,14.84
2022-11-18T02:59:10.860Z,14.58
2022-11-18T03:01:39.855Z,14.38
2022-11-18T03:04:07.698Z,14.47
2022-11-18T03:06:40.343Z,13.90
2022-11-18T03:09:38.607Z,13.72
2022-11-18T03:12:47.727Z,13.95
2022-11-18T03:15:49.157Z,13.97
2022-11-18T03:18:42.808Z,13.89
2022-11-18T03:21:18.177Z,14.05
2022-11-18T03:24:28.467Z,14.08
2022-11-18T03:27:24.417Z,13.86
2022-11-18T03:30:21.288Z,14.11
2022-11-18T03:33:12.728Z,14.25
2022-11-18T03:35:45.949Z,14.49
2022-11-18T03:38:19.549Z,14.66
2022-11-18T03:40:53.448Z,14.80
2022-11-18T03:43:26.823Z,14.81
2022-11-18T03:46:08.416Z,14.82
2022-11-18T03:48:41.607Z,14.85
2022-11-18T03:51:14.919Z,14.79
2022-11-18T03:53:48.228Z,14.74
2022-11-18T03:56:23.387Z,14.71
2022-11-18T03:59:04.519Z,14.58
2022-11-18T04:01:41.545Z,14.62
2022-11-18T04:04:10.669Z,14.59
2022-11-18T04:06:46.448Z,14.58
2022-11-18T04:09:20.660Z,14.40
2022-11-18T04:12:03.966Z,14.47
2022-11-18T04:14:38.157Z,14.34
2022-11-18T04:17:12.377Z,14.55
2022-11-18T04:19:41.488Z,14.61
2022-11-18T04:22:11.539Z,14.53
2022-11-18T04:24:39.939Z,14.29
2022-11-18T04:27:09.429Z,14.20
2022-11-18T04:29:37.691Z,14.44
2022-11-18T04:32:07.179Z,14.36
2022-11-18T04:34:35.107Z,14.48
2022-11-18T04:37:04.035Z,14.59
2022-11-18T04:39:31.988Z,14.42
2022-11-18T04:42:00.320Z,14.39
2022-11-18T04:44:33.598Z,14.48
2022-11-18T04:47:04.648Z,14.52
2022-11-18T04:49:34.108Z,14.45
2022-11-18T04:52:04.208Z,14.49
2022-11-18T04:54:32.649Z,14.41
2022-11-18T04:57:00.977Z,14.29
2022-11-18T04:59:30.329Z,14.45
2022-11-18T05:02:01.223Z,14.39
2022-11-18T05:04:32.753Z,14.57
2022-11-18T05:07:04.131Z,14.71
2022-11-18T05:09:32.758Z,14.49
2022-11-18T05:12:20.808Z,14.32
2022-11-18T05:14:50.780Z,14.20
2022-11-18T05:17:20.191Z,14.08
2022-11-18T05:19:49.096Z,14.31
2022-11-18T05:22:17.340Z,14.34
2022-11-18T05:24:45.427Z,14.26
2022-11-18T05:27:14.816Z,14.50
2022-11-18T05:29:42.822Z,14.21
2022-11-18T05:32:11.131Z,14.25
2022-11-18T05:34:40.942Z,14.32
2022-11-18T05:37:09.421Z,14.46
2022-11-18T05:39:37.360Z,14.56
2022-11-18T05:42:24.741Z,14.63
2022-11-18T05:44:57.866Z,14.61
2022-11-18T05:47:27.482Z,14.36
2022-11-18T05:49:55.456Z,14.24
2022-11-18T05:52:23.701Z,14.14
2022-11-18T05:54:52.029Z,14.41
2022-11-18T05:57:20.249Z,14.38
2022-11-18T05:59:48.220Z,14.45
2022-11-18T06:02:24.686Z,14.23
2022-11-18T06:04:59.850Z,14.31
2022-11-18T06:07:36.124Z,14.03
2022-11-18T06:10:06.802Z,14.07
2022-11-18T06:12:41.499Z,14.48
2022-11-18T06:15:18.981Z,14.27
2022-11-18T06:18:00.687Z,14.56
2022-11-18T06:20:29.649Z,14.51
2022-11-18T06:22:58.878Z,14.62
2022-11-18T06:25:27.350Z,14.83
2022-11-18T06:27:59.790Z,14.80
2022-11-18T06:30:28.199Z,14.62
2022-11-18T06:32:56.544Z,14.88
2022-11-18T06:35:24.620Z,14.64
2022-11-18T06:37:52.950Z,14.50
2022-11-18T06:40:21.014Z,14.42
2022-11-18T06:43:08.090Z,14.53
2022-11-18T06:45:36.310Z,14.71
2022-11-18T06:48:04.939Z,14.78
2022-11-18T06:50:32.939Z,14.94
2022-11-18T06:53:02.634Z,15.00
2022-11-18T06:55:30.533Z,15.18
2022-11-18T06:57:59.942Z,15.18
2022-11-18T07:00:28.129Z,15.38
2022-11-18T07:02:57.167Z,15.54
2022-11-18T07:05:25.301Z,15.47
2022-11-18T07:07:53.708Z,15.45
2022-11-18T07:10:22.263Z,15.48
2022-11-18T07:12:50.598Z,15.59
2022-11-18T07:15:18.621Z,15.58
2022-11-18T07:17:46.951Z,15.40
2022-11-18T07:20:15.282Z,15.34
2022-11-18T07:22:43.578Z,15.44
2022-11-18T07:25:11.572Z,15.30
2022-11-18T07:27:39.988Z,15.38
2022-11-18T07:30:08.487Z,15.43
2022-11-18T07:32:37.268Z,15.44
2022-11-18T07:35:05.668Z,15.40
2022-11-18T07:37:33.978Z,15.34
2022-11-18T07:40:02.188Z,15.28
2022-11-18T07:42:42.878Z,15.18
2022-11-18T07:45:27.979Z,15.23
2022-11-18T07:47:56.378Z,15.11
2022-11-18T07:50:24.349Z,15.25
2022-11-18T07:52:57.399Z,15.24
2022-11-18T07:55:30.841Z,14.85
2022-11-18T07:58:00.479Z,14.76
2022-11-18T08:00:28.833Z,14.74
2022-11-18T08:02:57.181Z,15.06
2022-11-18T08:05:25.679Z,14.92
2022-11-18T08:07:53.999Z,14.84
2022-11-18T08:10:21.979Z,15.41
2022-11-18T08:12:51.428Z,15.18
2022-11-18T08:15:19.389Z,15.27
2022-11-18T08:17:49.629Z,14.94
2022-11-18T08:20:18.189Z,15.22
2022-11-18T08:22:46.691Z,14.87
2022-11-18T08:25:15.148Z,14.91
2022-11-18T08:27:43.469Z,15.35
2022-11-18T08:30:12.173Z,15.42
2022-11-18T08:32:40.510Z,15.44
2022-11-18T08:35:11.263Z,15.29
2022-11-18T08:37:41.107Z,15.06
2022-11-18T08:40:09.956Z,15.41
2022-11-18T08:42:38.842Z,14.89
2022-11-18T08:45:10.123Z,14.96
2022-11-18T08:47:38.482Z,14.89
2022-11-18T08:50:09.638Z,15.49
2022-11-18T08:52:39.286Z,15.74
2022-11-18T08:55:08.119Z,16.03
2022-11-18T08:57:36.454Z,16.34
2022-11-18T09:00:06.051Z,16.80
2022-11-18T09:02:34.413Z,16.91
2022-11-18T09:05:02.499Z,17.41
2022-11-18T09:07:30.966Z,17.28
2022-11-18T09:09:58.959Z,17.35
2022-11-18T09:12:28.612Z,17.00
2022-11-18T09:15:13.753Z,16.93
2022-11-18T09:17:43.029Z,16.85
2022-11-18T09:20:19.928Z,16.79
2022-11-18T09:22:47.967Z,17.10
2022-11-18T09:25:16.458Z,17.14
2022-11-18T09:27:44.958Z,17.24
2022-11-18T09:30:13.814Z,17.61
2022-11-18T09:32:41.812Z,17.02
2022-11-18T09:35:10.120Z,17.24
2022-11-18T09:37:38.003Z,17.62
2022-11-18T09:40:07.049Z,17.53
2022-11-18T09:42:46.181Z,17.30
2022-11-18T09:45:25.480Z,18.15
2022-11-18T09:47:59.215Z,17.51
2022-11-18T09:53:19.630Z,17.43
2022-11-18T09:55:50.380Z,17.68
2022-11-18T09:58:34.330Z,18.01
2022-11-18T10:01:04.775Z,18.45
2022-11-18T10:03:34.152Z,17.92
2022-11-18T10:06:10.811Z,18.27
2022-11-18T10:09:11.286Z,17.84
2022-11-18T10:12:02.341Z,18.43
2022-11-18T10:14:43.089Z,19.08
2022-11-18T10:17:42.411Z,19.55
2022-11-18T10:20:42.342Z,19.73
2022-11-18T10:23:32.180Z,19.38
2022-11-18T10:26:00.141Z,19.22
2022-11-18T10:28:30.820Z,19.63
2022-11-18T10:31:11.119Z,19.70
2022-11-18T10:33:39.789Z,19.56
2022-11-18T10:36:16.810Z,20.22
2022-11-18T10:38:49.930Z,19.25
2022-11-18T10:41:22.180Z,20.25
2022-11-18T10:43:58.071Z,20.40
2022-11-18T10:46:29.052Z,20.83
2022-11-18T10:49:10.552Z,20.97
2022-11-18T10:51:44.091Z,21.64
2022-11-18T10:54:22.790Z,21.58
2022-11-18T10:57:06.489Z,21.53
2022-11-18T10:59:51.254Z,21.18
2022-11-18T11:02:25.339Z,20.90
2022-11-18T11:04:54.349Z,21.57
2022-11-18T11:07:37.369Z,21.20
2022-11-18T11:10:23.277Z,21.33
2022-11-18T11:13:14.695Z,21.97
2022-11-18T11:15:51.825Z,21.85
2022-11-18T11:18:42.125Z,22.50
2022-11-18T11:21:13.846Z,22.02
2022-11-18T11:23:44.075Z,22.27
2022-11-18T11:29:31.793Z,21.49
2022-11-18T11:32:34.164Z,20.75
2022-11-18T11:35:23.662Z,20.87
2022-11-18T11:37:57.735Z,21.72
2022-11-18T11:40:34.605Z,22.10
2022-11-18T11:43:34.854Z,21.27
2022-11-18T11:46:20.769Z,22.12
2022-11-18T11:49:07.202Z,22.07
2022-11-18T11:52:02.927Z,21.53
2022-11-18T11:54:52.745Z,21.98
2022-11-18T11:57:41.516Z,22.39
2022-11-18T12:00:16.618Z,21.91
2022-11-18T12:02:47.955Z,22.04
2022-11-18T12:05:39.734Z,21.80
2022-11-18T12:08:15.349Z,22.00
2022-11-18T12:11:07.893Z,21.68
2022-11-18T12:13:39.047Z,21.69
2022-11-18T12:16:41.438Z,21.86
2022-11-18T12:19:15.300Z,23.22
2022-11-18T12:21:45.811Z,23.61
2022-11-18T12:24:35.754Z,23.29
2022-11-18T12:27:35.205Z,22.50
2022-11-18T12:30:04.508Z,23.66
2022-11-18T12:32:46.924Z,23.03
2022-11-18T12:35:48.855Z,21.56
2022-11-18T12:38:32.555Z,21.79
2022-11-18T12:41:20.505Z,22.46
2022-11-18T12:43:51.247Z,23.13
2022-11-18T12:46:44.447Z,21.74
2022-11-18T12:49:22.288Z,22.32
2022-11-18T12:51:58.207Z,23.98
2022-11-18T12:54:46.867Z,24.39
2022-11-18T12:57:33.605Z,23.64
2022-11-18T13:00:17.456Z,23.23
2022-11-18T13:02:57.016Z,23.59
2022-11-18T13:05:28.437Z,22.63
2022-11-18T13:08:19.676Z,23.34
2022-11-18T13:11:18.478Z,23.60
2022-11-18T13:13:47.378Z,22.64
2022-11-18T13:16:41.766Z,24.75
2022-11-18T13:19:09.912Z,23.75
2022-11-18T13:21:56.816Z,23.27
2022-11-18T13:24:25.265Z,23.31
2022-11-18T13:26:59.756Z,22.03
2022-11-18T13:29:30.266Z,23.36
2022-11-18T13:32:10.365Z,23.18
2022-11-18T13:34:48.253Z,23.84
2022-11-18T13:37:21.511Z,23.27
2022-11-18T13:39:50.267Z,23.00
2022-11-18T13:42:30.570Z,22.33
2022-11-18T13:45:01.797Z,23.76
2022-11-18T13:47:43.137Z,23.73
2022-11-18T13:50:11.000Z,23.73
2022-11-18T13:53:03.927Z,24.25
2022-11-18T13:55:37.108Z,22.62
2022-11-18T13:58:40.205Z,23.39
2022-11-18T14:01:21.012Z,23.30
2022-11-18T14:03:55.079Z,22.62
2022-11-18T14:06:30.709Z,23.13
2022-11-18T14:09:21.289Z,23.56
2022-11-18T14:12:07.849Z,24.46
2022-11-18T14:14:41.480Z,25.81
2022-11-18T14:17:19.125Z,26.05
2022-11-18T14:20:16.750Z,26.70
2022-11-18T14:22:45.265Z,26.51
2022-11-18T14:25:20.757Z,26.72
2022-11-18T14:27:53.747Z,26.49
2022-11-18T14:30:28.016Z,26.73
2022-11-18T14:33:16.326Z,27.93
2022-11-18T14:35:54.536Z,28.31
2022-11-18T14:41:44.488Z,28.18
2022-11-18T14:44:14.160Z,27.50
2022-11-18T14:46:45.600Z,27.86
2022-11-18T14:49:19.864Z,27.86
2022-11-18T14:51:50.500Z,27.86
2022-11-18T14:54:25.881Z,26.83
2022-11-18T14:57:06.312Z,27.78
2022-11-18T14:59:34.227Z,27.65
2022-11-18T15:02:03.905Z,26.49
2022-11-18T15:04:31.940Z,26.09
2022-11-18T15:07:00.207Z,24.95
2022-11-18T15:09:28.095Z,22.59
2022-11-18T15:11:56.219Z,21.98
2022-11-18T15:14:24.196Z,20.90
2022-11-18T15:16:52.527Z,20.12
2022-11-18T15:19:20.476Z,19.75
2022-11-18T15:21:48.877Z,19.71
2022-11-18T15:24:17.044Z,19.39
2022-11-18T15:26:48.437Z,19.01
2022-11-18T15:29:19.265Z,19.10
2022-11-18T15:31:48.423Z,18.56
2022-11-18T15:34:19.281Z,18.53
2022-11-18T15:36:47.695Z,18.75
2022-11-18T15:39:15.716Z,17.96
2022-11-18T15:41:44.847Z,18.36
2022-11-18T15:44:13.088Z,18.29
2022-11-18T15:46:42.066Z,18.47
2022-11-18T15:49:15.089Z,18.39
2022-11-18T15:51:43.714Z,18.34
2022-11-18T15:54:11.721Z,18.59
2022-11-18T15:56:40.181Z,18.63
2022-11-18T15:59:12.138Z,18.40
2022-11-18T16:01:43.166Z,18.77
2022-11-18T16:04:13.904Z,18.45
2022-11-18T16:06:46.238Z,18.40
2022-11-18T16:09:16.982Z,18.47
2022-11-18T16:12:04.255Z,18.38
2022-11-18T16:14:32.246Z,18.37
2022-11-18T16:17:00.505Z,18.26
2022-11-18T16:19:31.818Z,18.13
2022-11-18T16:22:00.250Z,18.11
2022-11-18T16:24:29.927Z,18.00
2022-11-18T16:26:58.098Z,18.17
2022-11-18T16:29:26.273Z,17.99
2022-11-18T16:31:55.037Z,17.97
2022-11-18T16:34:29.008Z,17.95
2022-11-18T16:37:01.422Z,17.75
2022-11-18T16:39:30.006Z,17.65
2022-11-18T16:42:07.423Z,17.57
2022-11-18T16:44:38.155Z,17.55
2022-11-18T16:47:13.818Z,17.45
2022-11-18T16:49:43.424Z,17.82
2022-11-18T16:52:11.908Z,17.53
2022-11-18T16:54:45.143Z,17.23
2022-11-18T16:57:15.729Z,16.67
2022-11-18T16:59:43.684Z,16.47
2022-11-18T17:02:13.786Z,16.47
2022-11-18T17:04:42.392Z,16.70
2022-11-18T17:07:10.633Z,16.55
2022-11-18T17:09:39.386Z,16.71
2022-11-18T17:12:08.066Z,16.22
2022-11-18T17:14:38.335Z,16.47
2022-11-18T17:17:07.592Z,16.44
2022-11-18T17:19:35.574Z,16.33
2022-11-18T17:22:03.870Z,16.18
2022-11-18T17:24:31.863Z,16.23
2022-11-18T17:27:00.200Z,16.30
2022-11-18T17:29:28.166Z,16.57
2022-11-18T17:31:56.963Z,16.30
2022-11-18T17:34:24.959Z,16.16
2022-11-18T17:36:53.196Z,16.05
2022-11-18T17:39:21.296Z,15.92
2022-11-18T17:42:08.186Z,15.86
2022-11-18T17:44:36.134Z,16.13
2022-11-18T17:47:04.538Z,16.26
2022-11-18T17:49:32.626Z,16.35
2022-11-18T17:52:01.015Z,16.30
2022-11-18T17:54:28.905Z,16.42
2022-11-18T17:56:57.212Z,16.36
2022-11-18T17:59:25.121Z,16.39
2022-11-18T18:01:59.233Z,16.29
2022-11-18T18:04:27.931Z,16.21
2022-11-18T18:06:56.168Z,16.18
2022-11-18T18:09:30.042Z,16.27
2022-11-18T18:12:00.922Z,16.05
2022-11-18T18:14:28.875Z,16.01
2022-11-18T18:16:57.271Z,15.95
2022-11-18T18:19:25.693Z,16.05
2022-11-18T18:21:53.929Z,15.84
2022-11-18T18:24:22.474Z,16.00
2022-11-18T18:26:51.102Z,15.82
2022-11-18T18:29:19.339Z,15.79
2022-11-18T18:31:47.596Z,15.89
2022-11-18T18:34:15.615Z,15.83
2022-11-18T18:36:44.052Z,15.69
2022-11-18T18:39:11.933Z,15.88
2022-11-18T18:41:40.147Z,15.84
2022-11-18T18:44:08.497Z,15.47
2022-11-18T18:46:39.759Z,15.69
2022-11-18T18:49:13.827Z,15.59
2022-11-18T18:51:43.608Z,15.51
2022-11-18T18:54:16.285Z,15.42
2022-11-18T18:56:44.731Z,15.43
2022-11-18T18:59:12.714Z,15.35
2022-11-18T19:01:41.315Z,15.29
2022-11-18T19:04:13.755Z,15.37
2022-11-18T19:06:56.790Z,15.31
2022-11-18T19:09:27.336Z,15.37
2022-11-18T19:12:15.018Z,15.43
2022-11-18T19:14:43.049Z,15.39
2022-11-18T19:17:12.706Z,15.36
2022-11-18T19:20:01.093Z,15.35
2022-11-18T19:22:31.606Z,15.28
2022-11-18T19:25:00.441Z,15.25
2022-11-18T19:27:30.730Z,15.25
2022-11-18T19:29:58.802Z,15.15
2022-11-18T19:32:27.102Z,15.12
2022-11-18T19:34:55.424Z,15.05
2022-11-18T19:37:24.273Z,15.08
2022-11-18T19:39:52.214Z,14.97
2022-11-18T19:42:20.513Z,15.02
2022-11-18T19:44:48.396Z,14.96
2022-11-18T19:47:17.268Z,14.82
2022-11-18T19:49:45.264Z,14.91
2022-11-18T19:52:13.549Z,14.96
2022-11-18T19:54:41.599Z,14.81
2022-11-18T19:57:09.906Z,15.03
2022-11-18T19:59:38.091Z,14.89
2022-11-18T20:02:07.595Z,14.98
2022-11-18T20:04:36.725Z,14.90
2022-11-18T20:07:05.219Z,14.79
2022-11-18T20:09:33.425Z,14.77
2022-11-18T20:12:01.656Z,14.78
2022-11-18T20:14:29.524Z,14.97
2022-11-18T20:16:57.812Z,14.76
2022-11-18T20:19:25.844Z,14.70
2022-11-18T20:21:54.655Z,14.78
2022-11-18T20:24:22.806Z,14.67
2022-11-18T20:26:51.026Z,14.66
2022-11-18T20:29:19.240Z,14.79
2022-11-18T20:31:47.834Z,14.57
2022-11-18T20:34:15.896Z,14.61
2022-11-18T20:36:44.729Z,14.67
2022-11-18T20:39:15.839Z,14.80
2022-11-18T20:42:04.864Z,14.98
2022-11-18T20:44:32.993Z,14.78
2022-11-18T20:47:01.874Z,15.00
2022-11-18T20:49:29.953Z,14.78
2022-11-18T20:51:58.324Z,14.84
2022-11-18T20:54:26.305Z,14.44
2022-11-18T20:56:54.757Z,14.56
2022-11-18T20:59:23.603Z,14.76
2022-11-18T21:01:52.005Z,14.57
2022-11-18T21:04:19.943Z,14.66
2022-11-18T21:06:48.165Z,14.54
2022-11-18T21:09:18.008Z,14.56
2022-11-18T21:11:46.503Z,14.51
2022-11-18T21:14:23.549Z,14.19
2022-11-18T21:16:55.760Z,14.18
2022-11-18T21:19:27.102Z,14.04
2022-11-18T21:21:56.773Z,14.04
2022-11-18T21:24:29.193Z,13.90
2022-11-18T21:26:58.866Z,13.93
2022-11-18T21:29:29.084Z,13.95
2022-11-18T21:32:02.479Z,14.19
2022-11-18T21:34:30.622Z,14.16
2022-11-18T21:36:58.977Z,14.14
2022-11-18T21:39:27.785Z,14.02
2022-11-18T21:41:57.358Z,13.95
2022-11-18T21:44:28.684Z,13.94
2022-11-18T21:46:58.454Z,13.87
2022-11-18T21:49:26.395Z,13.87
2022-11-18T21:51:54.675Z,13.73
2022-11-18T21:54:23.125Z,13.78
2022-11-18T21:56:51.485Z,13.71
2022-11-18T21:59:19.698Z,13.83
2022-11-18T22:01:48.355Z,13.96
2022-11-18T22:04:36.392Z,13.81
2022-11-18T22:07:05.732Z,13.78
2022-11-18T22:09:36.701Z,13.77
2022-11-18T22:12:07.654Z,13.72
2022-11-18T22:14:36.476Z,13.69
2022-11-18T22:17:05.511Z,13.62
2022-11-18T22:19:34.198Z,13.50
2022-11-18T22:22:02.572Z,13.54
2022-11-18T22:24:30.479Z,13.57
2022-11-18T22:26:59.900Z,13.52
2022-11-18T22:29:27.932Z,13.41
2022-11-18T22:31:56.295Z,13.21
2022-11-18T22:34:24.439Z,13.39
2022-11-18T22:36:52.807Z,13.47
2022-11-18T22:39:21.203Z,13.41
2022-11-18T22:42:08.487Z,13.53
2022-11-18T22:44:36.689Z,13.17
2022-11-18T22:47:05.179Z,12.89
2022-11-18T22:49:33.370Z,12.93
2022-11-18T22:52:02.209Z,12.99
2022-11-18T22:54:39.388Z,12.93
2022-11-18T22:57:09.181Z,12.92
2022-11-18T22:59:37.717Z,13.05
2022-11-18T23:02:07.468Z,13.06
2022-11-18T23:04:35.575Z,12.97
2022-11-18T23:07:04.631Z,13.08
2022-11-18T23:09:32.878Z,13.10
2022-11-18T23:12:19.726Z,13.03
2022-11-18T23:14:47.789Z,13.27
2022-11-18T23:17:16.213Z,13.20
2022-11-18T23:19:45.055Z,13.24
2022-11-18T23:22:13.701Z,13.25
2022-11-18T23:24:41.879Z,13.15
2022-11-18T23:27:10.210Z,13.16
2022-11-18T23:29:38.730Z,13.37
2022-11-18T23:32:07.237Z,13.28
2022-11-18T23:34:35.226Z,13.23
2022-11-18T23:37:04.716Z,13.00
2022-11-18T23:39:32.766Z,13.15
2022-11-18T23:42:01.228Z,13.30
2022-11-18T23:44:47.418Z,13.09
2022-11-18T23:47:16.087Z,13.23
2022-11-18T23:49:44.127Z,13.05
2022-11-18T23:52:15.575Z,13.02
2022-11-18T23:54:43.640Z,13.12
2022-11-18T23:57:12.929Z,12.95
2022-11-18T23:59:40.927Z,12.99
